M I D A S
Marine Information and Data Acquisition System
Tripno 1017 of the Zeeleeuw from 2005-10-12 06:25:38 to 2005-10-12 13:09:30
Back to CruiseResearch ActivitiesStationsMapUnderway DataData graphs

EquipmentUnitsComment
TimeDGPSUTC
LatitudeDGPSDM.mWGS84
LongitudeDGPSDM.mWGS84
HeadingGyrodeg 
SOGDGPSknotsSpeed over ground
COGDGPSdegCourse over ground
DepthEcho soundermeters200 kHz
Missing or incorrect values are displayed as -999
Navigation data collected by the RV Zeeleeuw from 2005-10-12 06:26:49 to 2005-10-12 13:18:30
Time Latitude Longitude Heading SOG COG Depth
2005-10-12 06:27:55 51°13.613 2°56.043 111.8 3.3 289 -999
2005-10-12 06:28:55 51°13.639 2°55.946 120.4 4.4 297 -999
2005-10-12 06:29:55 51°13.673 2°55.839 113.3 4.6 294 -999
2005-10-12 06:30:54 51°13.688 2°55.754 90.9 2.1 279 14.5
2005-10-12 06:31:54 51°13.697 2°55.744 41.4 1.4 21 15.4
2005-10-12 06:32:54 51°13.747 2°55.721 328.2 5.5 324 11.6
2005-10-12 06:33:54 51°13.852 2°55.62 338.8 3.3 334 11.9
2005-10-12 06:34:54 51°14.016 2°55.5 339.5 10.6 336 12.5
2005-10-12 06:35:54 51°14.179 2°55.373 333.9 11.1 328 12.6
2005-10-12 06:36:54 51°14.319 2°55.16 314.5 12.1 310 12.9
2005-10-12 06:37:54 51°14.49 2°54.971 336.3 13.1 335 11.9
2005-10-12 06:38:54 51°14.682 2°54.808 331.9 13.2 332 11.5
2005-10-12 06:39:54 51°14.875 2°54.64 329.9 13.2 330 11
2005-10-12 06:40:54 51°15.066 2°54.467 329.9 13.2 329 10.4
2005-10-12 06:41:54 51°15.257 2°54.293 331.3 13.2 331 10.9
2005-10-12 06:42:54 51°15.449 2°54.12 330.9 13.3 330 11.7
2005-10-12 06:43:54 51°15.641 2°53.946 330.9 13.3 331 12.6
2005-10-12 06:44:54 51°15.832 2°53.772 330.9 13.2 331 13.1
2005-10-12 06:45:54 51°16.025 2°53.6 331.3 13.2 331 13.5
2005-10-12 06:46:54 51°16.217 2°53.428 331.6 13.2 331 13.9
2005-10-12 06:47:54 51°16.408 2°53.258 331.3 13.1 331 14
2005-10-12 06:48:54 51°16.599 2°53.088 331.3 13.1 331 13.6
2005-10-12 06:49:54 51°16.789 2°52.917 331.8 13.1 331 12.1
2005-10-12 06:50:54 51°16.979 2°52.742 331 13.3 330 11.7
2005-10-12 06:51:54 51°17.172 2°52.568 331.6 13.3 330 11.8
2005-10-12 06:52:54 51°17.364 2°52.391 330.9 13.3 330 12.5
2005-10-12 06:53:54 51°17.557 2°52.214 331.1 13.4 330 12.6
2005-10-12 06:54:54 51°17.748 2°52.035 331.2 13.4 329 12.5
2005-10-12 06:55:54 51°17.94 2°51.855 331.6 13.4 329 12.3
2005-10-12 06:56:54 51°18.132 2°51.677 331.6 13.4 330 13.1
2005-10-12 06:57:54 51°18.323 2°51.497 331.4 13.4 329 14.3
2005-10-12 06:58:54 51°18.515 2°51.318 331.5 13.4 329 15.5
2005-10-12 06:59:54 51°18.707 2°51.138 331.4 13.4 330 16.2
2005-10-12 07:00:54 51°18.902 2°50.962 331.8 13.5 330 16.8
2005-10-12 07:01:54 51°19.098 2°50.785 331.4 13.5 330 16.6
2005-10-12 07:02:54 51°19.293 2°50.61 331.2 13.5 330 15.3
2005-10-12 07:03:54 51°19.486 2°50.433 331.4 13.3 330 13.7
2005-10-12 07:04:54 51°19.677 2°50.256 331.2 13.3 330 15
2005-10-12 07:05:54 51°19.868 2°50.079 331.1 13.3 330 17
2005-10-12 07:06:54 51°20.062 2°49.903 331.1 13.4 330 19.1
2005-10-12 07:07:54 51°20.259 2°49.733 334.2 13.5 334 22
2005-10-12 07:08:54 51°20.461 2°49.576 334.5 13.5 334 24.4
2005-10-12 07:09:54 51°20.662 2°49.418 334.1 13.6 334 24.6
2005-10-12 07:10:54 51°20.864 2°49.259 334.8 13.5 333 24.7
2005-10-12 07:11:54 51°21.067 2°49.101 334.1 13.5 333 24
2005-10-12 07:12:54 51°21.277 2°48.965 340.5 13.7 340 21.7
2005-10-12 07:13:54 51°21.498 2°48.862 348.3 13.9 347 23.9
2005-10-12 07:14:54 51°21.725 2°48.779 347.9 14 347 25.2
2005-10-12 07:15:54 51°21.933 2°48.642 331.9 13.3 329 25.6
2005-10-12 07:16:54 51°22.121 2°48.456 327.1 13.3 327 25.5
2005-10-12 07:17:54 51°22.304 2°48.26 325.6 13.3 327 22.7
2005-10-12 07:18:54 51°22.484 2°48.061 325.1 13.3 326 19.7
2005-10-12 07:19:54 51°22.667 2°47.864 326.6 13.3 327 20.1
2005-10-12 07:20:54 51°22.851 2°47.667 326.4 13.4 327 21.6
2005-10-12 07:21:54 51°23.035 2°47.471 325.5 13.3 325 22.5
2005-10-12 07:22:54 51°23.219 2°47.274 326.7 13.3 327 21.4
2005-10-12 07:23:54 51°23.402 2°47.076 326.6 13.3 326 22.6
2005-10-12 07:24:54 51°23.587 2°46.881 326.4 13.4 327 27.2
2005-10-12 07:25:54 51°23.773 2°46.685 326.8 13.4 327 28.7
2005-10-12 07:26:54 51°23.959 2°46.49 326.1 13.4 325 29.6
2005-10-12 07:27:54 51°24.146 2°46.293 326.3 13.5 326 29.9
2005-10-12 07:28:54 51°24.333 2°46.098 325.4 13.4 327 30.4
2005-10-12 07:29:54 51°24.52 2°45.903 326.4 13.4 327 27.5
2005-10-12 07:30:54 51°24.71 2°45.711 326.9 13.5 328 26.6
2005-10-12 07:31:54 51°24.894 2°45.506 322.4 13.4 323 27.8
2005-10-12 07:32:54 51°25.068 2°45.289 321.4 13.2 322 26.2
2005-10-12 07:33:54 51°25.241 2°45.074 322.5 13.1 322 27.9
2005-10-12 07:34:54 51°25.414 2°44.858 322.2 13.2 322 26.4
2005-10-12 07:35:54 51°25.584 2°44.636 321.7 13.2 321 26.3
2005-10-12 07:36:54 51°25.754 2°44.415 321.2 13.1 320 27.1
2005-10-12 07:37:54 51°25.923 2°44.196 321.1 12.5 320 28.2
2005-10-12 07:38:54 51°25.992 2°44.055 281.9 3.8 292 27.7
2005-10-12 07:39:54 51°26.008 2°44.03 257.7 1.3 19 28.2
2005-10-12 07:40:54 51°26.029 2°44.042 260.6 1.4 18 27.7
2005-10-12 07:41:54 51°26.051 2°44.051 265.3 1.3 11 26.4
2005-10-12 07:42:54 51°26.071 2°44.055 260.5 1.2 7 27.9
2005-10-12 07:43:54 51°26.09 2°44.061 257.2 1.2 13 28.5
2005-10-12 07:44:54 51°26.111 2°44.069 257.2 1.3 17 28.8
2005-10-12 07:45:54 51°26.132 2°44.08 261.7 1.4 19 29.1
2005-10-12 07:46:54 51°26.154 2°44.094 266.4 1.5 22 28.5
2005-10-12 07:47:54 51°26.177 2°44.106 270.7 1.4 17 27.3
2005-10-12 07:48:54 51°26.199 2°44.114 263.1 1.2 8 28.5
2005-10-12 07:49:54 51°26.215 2°44.115 250.4 1 357 28.7
2005-10-12 07:50:54 51°26.229 2°44.114 238.3 0.7 358 28.6
2005-10-12 07:51:54 51°26.241 2°44.113 228.2 0.6 3 28.3
2005-10-12 07:52:54 51°26.25 2°44.115 218.3 0.6 7 27.2
2005-10-12 07:53:54 51°26.256 2°44.119 202.9 0.2 42 27.3
2005-10-12 07:54:54 51°26.243 2°44.147 147.4 3 114 28.7
2005-10-12 07:55:54 51°26.194 2°44.261 160.8 5.8 151 26.5
2005-10-12 07:56:54 51°26.09 2°44.257 199.8 6.8 195 28.1
2005-10-12 07:57:54 51°26.019 2°44.165 232.4 4.5 230 28.4
2005-10-12 07:58:54 51°25.981 2°44.112 221.9 1.6 223 28.1
2005-10-12 07:59:54 51°25.971 2°44.1 213.9 0.3 220 27
2005-10-12 08:00:54 51°25.973 2°44.099 215.8 0.4 4 26.9
2005-10-12 08:01:54 51°25.97 2°44.097 202.7 1.9 189 26.6
2005-10-12 08:02:54 51°25.931 2°44.115 176.9 2.3 153 26.1
2005-10-12 08:03:54 51°25.904 2°44.127 207.2 1.2 189 26.1
2005-10-12 08:04:54 51°25.887 2°44.109 219.6 2.1 220 25.6
2005-10-12 08:05:54 51°25.842 2°44.055 218.8 4.1 216 27.6
2005-10-12 08:06:54 51°25.784 2°43.986 222 4.2 223 26.8
2005-10-12 08:07:54 51°25.756 2°43.916 233 2.6 238 26.8
2005-10-12 08:08:54 51°25.733 2°43.858 232.7 2.6 236 23.9
2005-10-12 08:09:54 51°25.708 2°43.799 234.3 2.8 239 26.5
2005-10-12 08:10:54 51°25.686 2°43.734 235.4 2.7 240 26.6
2005-10-12 08:11:54 51°25.664 2°43.671 236.2 2.7 243 25.2
2005-10-12 08:12:54 51°25.646 2°43.611 235.6 2.3 243 27.4
2005-10-12 08:13:54 51°25.626 2°43.558 231.5 2.2 235 23.2
2005-10-12 08:14:54 51°25.608 2°43.506 233.1 2.2 245 27.1
2005-10-12 08:15:54 51°25.588 2°43.457 229.2 2.2 236 24.7
2005-10-12 08:16:54 51°25.565 2°43.406 228.6 2.4 233 26.7
2005-10-12 08:17:54 51°25.54 2°43.351 228.8 2.6 234 24.5
2005-10-12 08:18:54 51°25.516 2°43.295 229.5 2.6 234 26.9
2005-10-12 08:19:54 51°25.49 2°43.239 228.9 2.6 235 26.2
2005-10-12 08:20:54 51°25.465 2°43.181 228.9 2.7 234 26.1
2005-10-12 08:21:54 51°25.439 2°43.125 228.6 2.7 235 26.3
2005-10-12 08:22:54 51°25.413 2°43.067 229.2 2.7 235 25.3
2005-10-12 08:23:54 51°25.387 2°43.009 230.1 2.6 239 26.9
2005-10-12 08:24:54 51°25.361 2°42.95 228 2.6 233 22.5
2005-10-12 08:25:54 51°25.337 2°42.894 229 2.5 236 26.7
2005-10-12 08:26:54 51°25.314 2°42.838 228.1 2.5 233 25.7
2005-10-12 08:27:54 51°25.29 2°42.786 229.6 2.5 238 26.2
2005-10-12 08:28:54 51°25.266 2°42.732 229.6 2.5 236 25.2
2005-10-12 08:29:54 51°25.243 2°42.674 230 2.6 238 25.9
2005-10-12 08:30:54 51°25.22 2°42.619 229.8 2.4 235 25.6
2005-10-12 08:31:54 51°25.196 2°42.565 229.7 2.5 237 26.7
2005-10-12 08:32:54 51°25.174 2°42.508 228.3 2.6 233 23.3
2005-10-12 08:33:54 51°25.149 2°42.453 229.5 2.6 237 26.6
2005-10-12 08:34:54 51°25.126 2°42.394 230 2.6 236 26.3
2005-10-12 08:35:54 51°25.101 2°42.339 228.4 2.5 235 26.7
2005-10-12 08:36:54 51°25.077 2°42.281 229.5 2.7 238 22.4
2005-10-12 08:37:54 51°25.059 2°42.218 236 2.6 247 27.3
2005-10-12 08:38:54 51°25.044 2°42.154 238.7 2.5 252 26.5
2005-10-12 08:39:54 51°25.03 2°42.092 239.8 2.5 253 25.2
2005-10-12 08:40:54 51°25.02 2°42.026 244.7 2.6 259 27.2
2005-10-12 08:41:54 51°25.024 2°41.951 268 3.1 286 26.9
2005-10-12 08:42:54 51°25.05 2°41.871 290.1 3.3 307 25.6
2005-10-12 08:43:54 51°25.083 2°41.817 288.7 2.4 317 25.2
2005-10-12 08:44:54 51°25.108 2°41.784 280.2 1.7 325 26.5
2005-10-12 08:45:54 51°25.128 2°41.757 268.4 2 295 27.8
2005-10-12 08:46:54 51°25.093 2°41.702 195.2 4.6 184 27.4
2005-10-12 08:47:54 51°24.987 2°41.823 145.2 11.3 138 27.3
2005-10-12 08:48:54 51°24.844 2°42.057 138.6 12.6 130 24.7
2005-10-12 08:49:54 51°24.722 2°42.336 128.6 12.9 122 26.9
2005-10-12 08:50:54 51°24.612 2°42.632 127.5 12.9 121 25.8
2005-10-12 08:51:54 51°24.499 2°42.925 128.3 12.9 122 19.5
2005-10-12 08:52:55 51°24.388 2°43.227 127.3 12.9 121 26
2005-10-12 08:53:54 51°24.283 2°43.523 126.6 13 119 22.5
2005-10-12 08:54:54 51°24.175 2°43.823 126 13 118 27.8
2005-10-12 08:55:54 51°24.068 2°44.125 126.5 13 120 27.3
2005-10-12 08:56:54 51°24.021 2°44.463 100.2 13.4 93 27.3
2005-10-12 08:57:54 51°23.933 2°44.78 127.8 13 121 28.1
2005-10-12 08:58:54 51°23.819 2°45.072 131.3 12.9 123 28.1
2005-10-12 08:59:54 51°23.697 2°45.355 130.9 13 124 28.3
2005-10-12 09:00:54 51°23.576 2°45.638 131.1 12.9 124 28.8
2005-10-12 09:01:54 51°23.456 2°45.92 131.3 12.8 124 28.7
2005-10-12 09:02:54 51°23.336 2°46.201 131.1 12.9 123 25.5
2005-10-12 09:03:54 51°23.217 2°46.486 131.3 12.9 124 25.7
2005-10-12 09:04:54 51°23.097 2°46.769 131.3 12.9 123 23
2005-10-12 09:05:54 51°22.978 2°47.055 131.2 12.9 123 20.7
2005-10-12 09:06:54 51°22.884 2°47.367 122 13 115 19.4
2005-10-12 09:07:54 51°22.796 2°47.685 120.1 13 112 20.7
2005-10-12 09:08:54 51°22.728 2°48.007 116.8 11.5 108 17.5
2005-10-12 09:09:54 51°22.681 2°48.236 118.1 7.8 106 19.2
2005-10-12 09:10:54 51°22.666 2°48.407 111.2 5.9 97 19.2
2005-10-12 09:11:54 51°22.648 2°48.548 120.1 5.2 103 18.3
2005-10-12 09:12:54 51°22.625 2°48.682 124.8 5.8 109 17.4
2005-10-12 09:13:54 51°22.565 2°48.805 155.2 6 141 19.1
2005-10-12 09:14:54 51°22.479 2°48.912 157.2 6.7 147 20.8
2005-10-12 09:15:54 51°22.382 2°49 158.5 6.8 147 24.1
2005-10-12 09:16:54 51°22.294 2°49.125 148.1 7.1 139 22.4
2005-10-12 09:17:54 51°22.198 2°49.226 157.8 7 146 24.8
2005-10-12 09:18:54 51°22.112 2°49.32 162.6 5 150 24.5
2005-10-12 09:19:55 51°22.062 2°49.333 205.9 1.2 191 24.5
2005-10-12 09:20:54 51°22.064 2°49.332 241.5 0.5 346 24.5
2005-10-12 09:21:54 51°22.074 2°49.328 254.4 0.6 351 24.5
2005-10-12 09:22:54 51°22.086 2°49.325 250.4 0.7 357 24.6
2005-10-12 09:23:54 51°22.098 2°49.326 244.7 0.8 5 24.5
2005-10-12 09:24:54 51°22.11 2°49.33 242 0.8 9 24.5
2005-10-12 09:25:54 51°22.124 2°49.336 239.7 0.9 12 24.6
2005-10-12 09:26:54 51°22.139 2°49.341 239.9 0.9 20 24.7
2005-10-12 09:27:54 51°22.154 2°49.35 242.3 1 18 24.8
2005-10-12 09:28:54 51°22.169 2°49.359 244.5 0.9 19 24.6
2005-10-12 09:29:54 51°22.182 2°49.363 240.6 0.5 348 24.7
2005-10-12 09:30:55 51°22.182 2°49.356 214 0.2 215 24.6
2005-10-12 09:31:54 51°22.176 2°49.359 191.8 0.6 150 24.7
2005-10-12 09:32:54 51°22.166 2°49.375 167 1.1 122 24.6
2005-10-12 09:33:54 51°22.158 2°49.448 94.9 4.2 79 24.3
2005-10-12 09:34:54 51°22.234 2°49.553 32.8 8.9 29 24
2005-10-12 09:35:54 51°22.385 2°49.69 38.6 11 36 24.2
2005-10-12 09:36:54 51°22.524 2°49.889 49.8 11.3 45 23.8
2005-10-12 09:37:54 51°22.623 2°50.136 66 11.1 61 22.4
2005-10-12 09:38:54 51°22.691 2°50.31 64.5 6.1 56 21.7
2005-10-12 09:39:54 51°22.73 2°50.427 79.2 4.5 64 21.6
2005-10-12 09:40:54 51°22.755 2°50.527 85.2 3.6 69 23.2
2005-10-12 09:41:54 51°22.778 2°50.612 85.9 3.4 68 21.9
2005-10-12 09:42:54 51°22.8 2°50.693 86.5 3.3 67 22.9
2005-10-12 09:43:54 51°22.822 2°50.771 84.4 3.2 66 21.7
2005-10-12 09:44:54 51°22.845 2°50.848 85.7 3.1 64 22.1
2005-10-12 09:45:54 51°22.87 2°50.919 77.4 3 57 21
2005-10-12 09:46:54 51°22.896 2°50.985 79.1 2.9 58 23.1
2005-10-12 09:47:54 51°22.921 2°51.048 79.8 2.7 59 21.5
2005-10-12 09:48:54 51°22.945 2°51.111 82.8 2.8 61 22.6
2005-10-12 09:49:55 51°22.966 2°51.175 90 2.7 65 21.5
2005-10-12 09:50:54 51°22.985 2°51.237 88.6 2.7 64 22.2
2005-10-12 09:51:54 51°23.002 2°51.3 92.5 2.6 67 22.5
2005-10-12 09:52:54 51°23.019 2°51.363 90.8 2.6 66 21.9
2005-10-12 09:53:54 51°23.034 2°51.429 94.8 2.5 73 21.2
2005-10-12 09:54:54 51°23.046 2°51.494 95.1 2.6 74 22.1
2005-10-12 09:55:54 51°23.058 2°51.559 93.9 2.5 75 22.5
2005-10-12 09:56:54 51°23.072 2°51.624 90 2.5 71 21.1
2005-10-12 09:57:54 51°23.09 2°51.688 85.6 2.6 66 21.5
2005-10-12 09:58:54 51°23.108 2°51.752 87 2.7 66 23.3
2005-10-12 09:59:54 51°23.128 2°51.817 82.4 2.8 62 22.9
2005-10-12 10:00:54 51°23.15 2°51.882 82.2 2.8 61 20.3
2005-10-12 10:01:54 51°23.173 2°51.947 82.2 2.8 61 22.9
2005-10-12 10:02:54 51°23.196 2°52.012 79.2 2.8 60 23.1
2005-10-12 10:03:54 51°23.221 2°52.076 79 2.8 59 22.2
2005-10-12 10:04:54 51°23.244 2°52.14 82.8 2.7 63 21.8
2005-10-12 10:05:54 51°23.265 2°52.206 86.6 2.8 65 21.9
2005-10-12 10:06:54 51°23.284 2°52.276 88.5 2.9 69 22
2005-10-12 10:07:54 51°23.303 2°52.348 89 3.1 69 21
2005-10-12 10:08:54 51°23.318 2°52.431 94.6 3.5 76 21.3
2005-10-12 10:09:54 51°23.329 2°52.532 97.2 3.9 79 21.8
2005-10-12 10:10:54 51°23.339 2°52.618 103.3 2.8 80 21.4
2005-10-12 10:11:54 51°23.347 2°52.68 105.3 2.1 75 21.4
2005-10-12 10:12:54 51°23.358 2°52.728 105.8 1.8 67 20.3
2005-10-12 10:13:54 51°23.362 2°52.793 121.3 3.4 105 21.6
2005-10-12 10:14:54 51°23.277 2°52.86 180.8 8.9 174 21.5
2005-10-12 10:15:54 51°23.086 2°52.835 196.6 12.2 194 22.4
2005-10-12 10:16:55 51°22.888 2°52.737 201.4 12.3 197 22.6
2005-10-12 10:17:54 51°22.696 2°52.643 200.7 12.3 197 23.4
2005-10-12 10:18:54 51°22.502 2°52.549 200.5 12.3 197 23.4
2005-10-12 10:19:54 51°22.307 2°52.452 200.7 12.4 198 24.4
2005-10-12 10:20:54 51°22.11 2°52.357 200.4 12.4 197 24.6
2005-10-12 10:21:54 51°21.913 2°52.264 199.9 12.3 196 24.7
2005-10-12 10:22:54 51°21.716 2°52.172 200.4 12.3 197 23.5
2005-10-12 10:23:55 51°21.516 2°52.077 201 12.3 197 21.8
2005-10-12 10:24:54 51°21.323 2°51.985 200.8 12.3 196 20
2005-10-12 10:25:54 51°21.127 2°51.893 200.3 12.3 196 18.4
2005-10-12 10:26:54 51°20.932 2°51.792 200.8 12.5 198 17.4
2005-10-12 10:27:54 51°20.734 2°51.688 200.5 12.6 198 16.3
2005-10-12 10:28:54 51°20.536 2°51.585 200.5 12.6 199 15.4
2005-10-12 10:29:54 51°20.337 2°51.483 200.4 12.5 199 14
2005-10-12 10:30:54 51°20.141 2°51.384 199.5 12.4 198 13.2
2005-10-12 10:31:54 51°19.947 2°51.283 200.3 12.3 198 12.9
2005-10-12 10:32:55 51°19.75 2°51.177 200.4 12.5 198 13.9
2005-10-12 10:33:54 51°19.558 2°51.073 200.2 12.4 198 14.6
2005-10-12 10:34:54 51°19.361 2°50.969 200.3 12.5 198 15
2005-10-12 10:35:54 51°19.162 2°50.864 200.1 12.7 198 15.2
2005-10-12 10:36:54 51°18.963 2°50.757 199.6 12.8 198 15.1
2005-10-12 10:37:54 51°18.763 2°50.65 200.6 12.8 199 15
2005-10-12 10:38:54 51°18.562 2°50.541 200.5 12.8 199 14.7
2005-10-12 10:39:54 51°18.36 2°50.436 200.4 12.7 198 14.5
2005-10-12 10:40:54 51°18.16 2°50.332 200.1 12.7 198 14.2
2005-10-12 10:41:54 51°17.96 2°50.227 199.9 12.6 199 13.7
2005-10-12 10:42:54 51°17.761 2°50.121 200 12.6 199 13.3
2005-10-12 10:43:54 51°17.563 2°50.014 200.7 12.6 199 13
2005-10-12 10:44:54 51°17.363 2°49.909 200.1 12.7 198 12.1
2005-10-12 10:45:54 51°17.164 2°49.803 200.8 12.5 199 10.4
2005-10-12 10:46:54 51°16.967 2°49.697 200.3 12.5 199 10.2
2005-10-12 10:47:54 51°16.77 2°49.594 201 12.5 199 12.4
2005-10-12 10:48:55 51°16.569 2°49.484 200.8 12.6 199 15.3
2005-10-12 10:49:54 51°16.373 2°49.379 200.3 12.6 199 14.1
2005-10-12 10:50:54 51°16.174 2°49.267 200.5 12.7 200 12.6
2005-10-12 10:51:54 51°15.974 2°49.16 199.5 12.6 198 11.9
2005-10-12 10:52:54 51°15.776 2°49.052 200.4 12.5 200 11
2005-10-12 10:53:54 51°15.579 2°48.94 200.8 12.5 199 11
2005-10-12 10:54:54 51°15.38 2°48.83 199.6 12.8 199 13
2005-10-12 10:55:54 51°15.18 2°48.716 199.9 12.8 199 13.3
2005-10-12 10:56:54 51°14.98 2°48.601 200.3 12.9 200 12.8
2005-10-12 10:57:54 51°14.778 2°48.485 200.1 12.8 199 12.5
2005-10-12 10:58:54 51°14.576 2°48.371 200.6 13 200 12.2
2005-10-12 10:59:54 51°14.373 2°48.258 201 12.8 200 11.8
2005-10-12 11:00:54 51°14.179 2°48.124 206.2 12 205 11.7
2005-10-12 11:01:54 51°14.058 2°48.051 194.4 5.7 195 11.9
2005-10-12 11:02:54 51°14.01 2°48.027 211.2 0.5 255 11.9
2005-10-12 11:03:55 51°14.016 2°48.021 240.5 0.5 316 -999
2005-10-12 11:04:54 51°14.021 2°48.012 254.4 0.4 311 12
2005-10-12 11:05:55 51°14.026 2°48.002 258.9 0.5 300 11.8
2005-10-12 11:06:54 51°14.031 2°47.992 260.9 0.5 306 11.9
2005-10-12 11:07:54 51°14.036 2°47.981 262.1 0.6 303 11.9
2005-10-12 11:08:54 51°14.037 2°47.958 247 1.4 259 11.9
2005-10-12 11:09:55 51°14.026 2°47.92 218.7 1.6 238 11.9
2005-10-12 11:10:54 51°14.01 2°47.892 197.4 1.4 221 11.7
2005-10-12 11:11:55 51°13.992 2°47.876 174.8 1.2 196 12
2005-10-12 11:12:55 51°13.977 2°47.877 145.9 0.9 154 11.8
2005-10-12 11:13:54 51°13.971 2°47.891 114.4 0.6 102 11.6
2005-10-12 11:14:54 51°13.974 2°47.901 96.7 0.5 46 11.9
2005-10-12 11:15:54 51°13.979 2°47.908 91.5 0.5 24 11.8
2005-10-12 11:16:54 51°13.986 2°47.915 87.2 0.8 56 11.8
2005-10-12 11:17:54 51°14 2°47.974 80.8 3.3 72 11.8
2005-10-12 11:18:55 51°14.013 2°48.082 88.1 4.5 82 11.6
2005-10-12 11:19:54 51°14.026 2°48.206 86.5 5 82 11.6
2005-10-12 11:20:55 51°14.03 2°48.338 98.7 4.8 96 11.8
2005-10-12 11:21:55 51°14.016 2°48.444 107.7 3.6 103 11.7
2005-10-12 11:22:54 51°14.007 2°48.528 100.5 3.1 94 11.5
2005-10-12 11:23:55 51°14.005 2°48.61 96.6 3 91 11.5
2005-10-12 11:24:54 51°14.005 2°48.687 96.4 2.8 89 11.5
2005-10-12 11:25:55 51°14.009 2°48.763 88.5 2.9 81 11.5
2005-10-12 11:26:54 51°14.023 2°48.834 77 2.9 69 11.4
2005-10-12 11:27:54 51°14.039 2°48.905 80.4 2.8 73 11.2
2005-10-12 11:28:54 51°14.054 2°48.975 76.8 2.8 68 11.2
2005-10-12 11:29:54 51°14.072 2°49.042 76 2.7 68 11.1
2005-10-12 11:30:54 51°14.089 2°49.104 75.5 2.6 67 11.1
2005-10-12 11:31:54 51°14.105 2°49.166 77.1 2.5 67 11.1
2005-10-12 11:32:54 51°14.122 2°49.226 72.1 2.5 63 10.9
2005-10-12 11:33:54 51°14.143 2°49.286 69.3 2.6 59 10.9
2005-10-12 11:34:55 51°14.163 2°49.347 72.8 2.5 64 10.9
2005-10-12 11:35:54 51°14.181 2°49.407 75.2 2.5 66 11.2
2005-10-12 11:36:54 51°14.197 2°49.468 76.4 2.5 68 10.8
2005-10-12 11:37:54 51°14.214 2°49.53 73 2.5 63 11
2005-10-12 11:38:55 51°14.234 2°49.591 69.4 2.6 62 11
2005-10-12 11:39:54 51°14.256 2°49.648 66.1 2.6 57 11.1
2005-10-12 11:40:54 51°14.279 2°49.705 69.7 2.5 60 10.9
2005-10-12 11:41:54 51°14.298 2°49.765 72.7 2.5 64 11
2005-10-12 11:42:54 51°14.318 2°49.825 71.1 2.5 63 10.9
2005-10-12 11:43:54 51°14.337 2°49.886 71.9 2.5 62 11
2005-10-12 11:44:54 51°14.355 2°49.946 72 2.5 64 10.9
2005-10-12 11:45:54 51°14.375 2°50.004 68.5 2.5 60 10.9
2005-10-12 11:46:54 51°14.398 2°50.06 63.3 2.5 52 11
2005-10-12 11:47:54 51°14.424 2°50.113 62.8 2.6 53 11
2005-10-12 11:48:54 51°14.448 2°50.169 66 2.5 56 10.8
2005-10-12 11:49:54 51°14.471 2°50.224 66.6 2.5 58 11.1
2005-10-12 11:50:55 51°14.495 2°50.28 66.6 2.5 57 11.1
2005-10-12 11:51:54 51°14.517 2°50.335 66.3 2.5 56 11
2005-10-12 11:52:55 51°14.541 2°50.391 65.1 2.5 54 11.1
2005-10-12 11:53:54 51°14.565 2°50.444 64.9 2.5 55 11.3
2005-10-12 11:54:55 51°14.589 2°50.501 68.2 2.5 57 11.3
2005-10-12 11:55:54 51°14.609 2°50.558 71.2 2.5 62 11.3
2005-10-12 11:56:55 51°14.628 2°50.618 74.2 2.5 65 11.2
2005-10-12 11:57:54 51°14.645 2°50.676 76.7 2.5 66 11.2
2005-10-12 11:58:54 51°14.659 2°50.737 79.1 2.4 70 11.1
2005-10-12 11:59:55 51°14.671 2°50.803 84 2.7 77 11.1
2005-10-12 12:00:54 51°14.679 2°50.876 85.7 2.8 80 11
2005-10-12 12:01:54 51°14.687 2°50.951 86.8 2.9 82 11
2005-10-12 12:02:55 51°14.693 2°51.027 89.4 3 85 10.9
2005-10-12 12:03:55 51°14.696 2°51.095 93.6 2 87 10.9
2005-10-12 12:04:55 51°14.695 2°51.136 98.7 1.3 91 10.9
2005-10-12 12:05:54 51°14.696 2°51.16 98.3 0.7 88 10.8
2005-10-12 12:06:54 51°14.682 2°51.227 123.6 4.2 126 10.6
2005-10-12 12:07:55 51°14.601 2°51.278 172.4 6 176 10.1
2005-10-12 12:08:55 51°14.502 2°51.259 196.1 5.6 200 9.7
2005-10-12 12:09:55 51°14.433 2°51.173 224 5.1 225 9.4
2005-10-12 12:10:55 51°14.39 2°51.084 232.9 3.8 237 9.3
2005-10-12 12:11:54 51°14.36 2°51.007 236.4 3.3 239 9.4
2005-10-12 12:12:55 51°14.333 2°50.937 238.9 2.9 242 9.1
2005-10-12 12:13:54 51°14.313 2°50.869 244.3 2.9 247 9.2
2005-10-12 12:14:54 51°14.295 2°50.799 245.3 2.9 249 9.2
2005-10-12 12:15:55 51°14.278 2°50.727 244.8 2.8 247 9.2
2005-10-12 12:16:54 51°14.26 2°50.659 244.5 2.8 250 9.1
2005-10-12 12:17:55 51°14.243 2°50.588 244.5 2.8 247 9.2
2005-10-12 12:18:54 51°14.226 2°50.519 243.8 2.9 247 9.1
2005-10-12 12:19:55 51°14.206 2°50.448 244.2 2.9 245 9.1
2005-10-12 12:20:54 51°14.188 2°50.38 244.5 2.9 248 9
2005-10-12 12:21:55 51°14.169 2°50.308 244.7 2.9 247 9.1
2005-10-12 12:22:55 51°14.149 2°50.238 243.4 2.9 246 9
2005-10-12 12:23:54 51°14.131 2°50.167 242.7 2.9 248 8.9
2005-10-12 12:24:54 51°14.112 2°50.097 242.2 2.9 246 9
2005-10-12 12:25:54 51°14.092 2°50.028 243.1 2.9 246 8.9
2005-10-12 12:26:55 51°14.073 2°49.958 244 2.9 247 8.9
2005-10-12 12:27:54 51°14.053 2°49.89 243.4 2.9 245 8.8
2005-10-12 12:28:54 51°14.033 2°49.821 243.8 2.9 246 8.8
2005-10-12 12:29:55 51°14.013 2°49.75 244.3 2.9 245 8.8
2005-10-12 12:30:54 51°13.993 2°49.681 245.6 2.9 247 8.8
2005-10-12 12:31:55 51°13.975 2°49.608 246.6 2.9 248 8.9
2005-10-12 12:32:55 51°13.956 2°49.539 246.4 2.9 246 8.9
2005-10-12 12:33:55 51°13.938 2°49.469 246.8 2.9 247 8.9
2005-10-12 12:34:54 51°13.919 2°49.399 247.5 3 248 9
2005-10-12 12:35:55 51°13.899 2°49.31 255.4 3.8 254 9
2005-10-12 12:36:55 51°13.886 2°49.206 264.8 4 262 9
2005-10-12 12:37:55 51°13.881 2°49.097 275.7 4.2 271 9.3
2005-10-12 12:38:54 51°13.887 2°48.985 287.6 4.5 279 9.7
2005-10-12 12:39:54 51°13.897 2°48.879 282.3 3.5 273 10.3
2005-10-12 12:40:54 51°13.896 2°48.797 270.3 2.8 265 10.4
2005-10-12 12:41:55 51°13.896 2°48.693 284.7 6.4 281 10.5
2005-10-12 12:42:55 51°13.997 2°48.592 8.6 8.2 3 10.9
2005-10-12 12:43:54 51°14.1 2°48.74 55.9 9.8 50 11.3
2005-10-12 12:44:55 51°14.166 2°48.997 77.5 10.6 73 11
2005-10-12 12:45:55 51°14.22 2°49.265 76.1 10.6 71 10.9
2005-10-12 12:46:55 51°14.274 2°49.533 76.6 10.6 73 10.7
2005-10-12 12:47:55 51°14.33 2°49.802 75.9 10.7 71 10.5
2005-10-12 12:48:54 51°14.384 2°50.066 76.2 10.6 72 10.2
2005-10-12 12:49:55 51°14.441 2°50.34 75.9 10.7 72 10.1
2005-10-12 12:50:54 51°14.498 2°50.605 76.1 10.7 72 10.1
2005-10-12 12:51:54 51°14.548 2°50.877 80.8 10.7 77 9.9
2005-10-12 12:52:54 51°14.586 2°51.153 80.7 10.7 78 9.9
2005-10-12 12:53:55 51°14.626 2°51.434 80.5 10.7 77 9.7
2005-10-12 12:54:55 51°14.666 2°51.711 80.8 10.7 77 9.6
2005-10-12 12:55:54 51°14.705 2°51.982 80.6 10.7 77 9.4
2005-10-12 12:56:55 51°14.719 2°52.269 91.9 10.7 90 9.3
2005-10-12 12:57:54 51°14.721 2°52.541 91.4 9.3 90 9.1
2005-10-12 12:58:55 51°14.72 2°52.727 93.1 5.7 92 9.2
2005-10-12 12:59:54 51°14.716 2°52.859 100.6 4.5 99 9.1
2005-10-12 13:00:55 51°14.699 2°52.94 114.5 2.4 115 9
2005-10-12 13:01:54 51°14.68 2°53.029 103.8 6.8 101 8.8
2005-10-12 13:02:55 51°14.663 2°53.302 98.1 11.7 96 8.5
2005-10-12 13:03:55 51°14.63 2°53.616 102 12.1 100 8.2
2005-10-12 13:04:54 51°14.593 2°53.934 101.5 12.5 100 9.8
2005-10-12 13:05:55 51°14.547 2°54.259 107.5 12.2 107 9.6
2005-10-12 13:06:54 51°14.489 2°54.563 106.7 12.2 105 9.6
2005-10-12 13:07:55 51°14.424 2°54.865 111.8 11.3 113 9.6
2005-10-12 13:08:55 51°14.34 2°55.131 123.4 11.3 120 10
2005-10-12 13:09:55 51°14.221 2°55.332 145.3 9.2 143 10
2005-10-12 13:10:55 51°14.106 2°55.432 157.1 7.4 154 9.7
2005-10-12 13:11:55 51°13.994 2°55.516 158 7.5 155 9.9
2005-10-12 13:12:55 51°13.879 2°55.599 158.4 7.5 155 9.2
2005-10-12 13:13:55 51°13.771 2°55.694 149.4 7.4 145 8.2
2005-10-12 13:14:55 51°13.698 2°55.821 129.9 5.6 126 9.1
2005-10-12 13:15:55 51°13.653 2°55.931 125.1 4.7 121 8.4
2005-10-12 13:16:55 51°13.623 2°56.03 112.5 3.3 110 8.6
2005-10-12 13:17:55 51°13.607 2°56.092 120.6 2.2 118 5.9